createdAt,value
2018-06-25T00:01:34.073Z,33.42
2018-06-25T00:04:00.734Z,33.39
2018-06-25T00:06:27.412Z,33.38
2018-06-25T00:08:54.052Z,33.34
2018-06-25T00:11:20.667Z,33.39
2018-06-25T00:13:47.313Z,33.40
2018-06-25T00:16:13.955Z,33.38
2018-06-25T00:18:40.593Z,33.46
2018-06-25T00:21:07.237Z,33.45
2018-06-25T00:23:33.930Z,33.50
2018-06-25T00:26:00.514Z,33.46
2018-06-25T00:28:27.155Z,33.44
2018-06-25T00:30:53.796Z,33.49
2018-06-25T00:33:20.441Z,33.47
2018-06-25T00:35:47.076Z,33.57
2018-06-25T00:38:13.771Z,33.58
2018-06-25T00:40:40.372Z,33.56
2018-06-25T00:43:07.004Z,33.62
2018-06-25T00:45:33.670Z,33.68
2018-06-25T00:48:00.315Z,33.69
2018-06-25T00:50:26.953Z,33.60
2018-06-25T00:52:53.597Z,33.77
2018-06-25T00:55:20.233Z,33.73
2018-06-25T00:57:46.870Z,33.80
2018-06-25T01:00:13.527Z,33.79
2018-06-25T01:02:40.166Z,33.84
2018-06-25T01:05:06.814Z,33.81
2018-06-25T01:07:33.453Z,33.86
2018-06-25T01:10:00.097Z,33.87
2018-06-25T01:12:26.745Z,33.86
2018-06-25T01:14:53.426Z,33.88
2018-06-25T01:17:20.065Z,33.89
2018-06-25T01:19:46.712Z,33.95
2018-06-25T01:22:13.373Z,33.94
2018-06-25T01:24:39.978Z,33.94
2018-06-25T01:27:06.615Z,33.92
2018-06-25T01:29:33.254Z,33.95
2018-06-25T01:31:59.887Z,34.01
2018-06-25T01:34:26.607Z,33.94
2018-06-25T01:36:53.240Z,34.06
2018-06-25T01:39:19.942Z,34.02
2018-06-25T01:41:46.564Z,34.07
2018-06-25T01:44:13.187Z,34.12
2018-06-25T01:46:39.877Z,34.11
2018-06-25T01:49:06.528Z,34.11
2018-06-25T01:51:33.203Z,34.14
2018-06-25T01:53:59.805Z,34.14
2018-06-25T01:56:26.463Z,34.23
2018-06-25T01:58:53.137Z,34.21
2018-06-25T02:01:19.746Z,34.24
2018-06-25T02:03:46.382Z,34.25
2018-06-25T02:06:13.017Z,34.28
2018-06-25T02:08:39.661Z,34.32
2018-06-25T02:11:06.294Z,34.31
2018-06-25T02:13:32.944Z,34.33
2018-06-25T02:15:59.633Z,34.39
2018-06-25T02:18:26.266Z,34.43
2018-06-25T02:20:52.950Z,34.37
2018-06-25T02:23:19.586Z,34.40
2018-06-25T02:25:46.221Z,34.44
2018-06-25T02:28:12.869Z,34.43
2018-06-25T02:30:39.527Z,34.48
2018-06-25T02:33:06.211Z,34.51
2018-06-25T02:35:32.839Z,34.55
2018-06-25T02:37:59.476Z,34.54
2018-06-25T02:40:26.132Z,34.58
2018-06-25T02:42:52.799Z,34.60
2018-06-25T02:45:19.485Z,34.59
2018-06-25T02:47:46.188Z,34.63
2018-06-25T02:50:12.861Z,34.71
2018-06-25T02:52:39.541Z,34.69
2018-06-25T02:55:06.138Z,34.66
2018-06-25T02:57:32.826Z,34.72
2018-06-25T02:59:59.470Z,34.83
2018-06-25T03:02:26.225Z,34.76
2018-06-25T03:04:52.877Z,34.85
2018-06-25T03:07:19.508Z,34.85
2018-06-25T03:09:46.150Z,34.90
2018-06-25T03:12:12.787Z,34.82
2018-06-25T03:14:39.441Z,35.23
2018-06-25T03:17:06.177Z,35.71
2018-06-25T03:19:32.785Z,35.60
2018-06-25T03:21:59.466Z,35.84
2018-06-25T03:24:26.140Z,35.84
2018-06-25T03:26:52.796Z,36.28
2018-06-25T03:29:19.439Z,36.10
2018-06-25T03:31:46.128Z,36.09
2018-06-25T03:34:12.766Z,36.65
2018-06-25T03:36:39.449Z,36.87
2018-06-25T03:39:06.089Z,36.94
2018-06-25T03:41:32.902Z,36.83
2018-06-25T03:43:59.563Z,36.97
2018-06-25T03:46:26.210Z,37.24
2018-06-25T03:48:52.861Z,37.56
2018-06-25T03:51:19.501Z,37.68
2018-06-25T03:53:46.186Z,36.96
2018-06-25T03:56:12.828Z,36.74
2018-06-25T03:58:39.472Z,36.59
2018-06-25T04:01:06.163Z,36.59
2018-06-25T04:03:32.789Z,36.53
2018-06-25T04:05:59.450Z,36.45
2018-06-25T04:08:26.124Z,36.45
2018-06-25T04:10:52.775Z,36.44
2018-06-25T04:13:19.460Z,36.49
2018-06-25T04:15:46.101Z,36.63
2018-06-25T04:18:12.743Z,36.75
2018-06-25T04:20:39.450Z,36.39
2018-06-25T04:23:06.042Z,36.24
2018-06-25T04:25:32.684Z,36.70
2018-06-25T04:27:59.327Z,36.93
2018-06-25T04:30:26.067Z,36.99
2018-06-25T04:32:52.686Z,36.87
2018-06-25T04:35:19.357Z,36.91
2018-06-25T04:37:46.027Z,36.96
2018-06-25T04:40:12.733Z,37.05
2018-06-25T04:42:39.346Z,37.03
2018-06-25T04:45:05.994Z,37.04
2018-06-25T04:47:32.643Z,37.07
2018-06-25T04:49:59.288Z,37.10
2018-06-25T04:52:25.960Z,37.22
2018-06-25T04:54:52.611Z,37.20
2018-06-25T04:57:19.248Z,37.21
2018-06-25T04:59:45.966Z,37.23
2018-06-25T05:02:12.584Z,37.09
2018-06-25T05:04:39.251Z,36.88
2018-06-25T05:07:05.865Z,36.92
2018-06-25T05:09:32.500Z,36.97
2018-06-25T05:11:59.221Z,37.02
2018-06-25T05:14:25.897Z,37.35
2018-06-25T05:16:52.532Z,37.35
2018-06-25T05:19:19.211Z,37.52
2018-06-25T05:21:45.851Z,38.07
2018-06-25T05:24:12.493Z,37.52
2018-06-25T05:26:39.207Z,37.70
2018-06-25T05:29:05.865Z,37.48
2018-06-25T05:31:32.452Z,37.75
2018-06-25T05:33:59.171Z,37.90
2018-06-25T05:36:25.782Z,37.99
2018-06-25T05:38:52.473Z,38.03
2018-06-25T05:41:19.113Z,38.09
2018-06-25T05:43:45.848Z,38.05
2018-06-25T05:46:12.469Z,37.98
2018-06-25T05:48:39.159Z,38.05
2018-06-25T05:51:05.797Z,38.04
2018-06-25T05:53:32.468Z,38.04
2018-06-25T05:55:59.109Z,38.11
2018-06-25T05:58:25.811Z,38.13
2018-06-25T06:00:52.490Z,38.24
2018-06-25T06:03:19.157Z,38.39
2018-06-25T06:05:45.756Z,38.48
2018-06-25T06:08:12.399Z,38.49
2018-06-25T06:10:39.056Z,38.49
2018-06-25T06:13:05.772Z,38.69
2018-06-25T06:15:32.653Z,39.17
2018-06-25T06:17:59.727Z,38.91
2018-06-25T06:20:26.396Z,39.07
2018-06-25T06:22:53.040Z,39.23
2018-06-25T06:25:19.718Z,39.14
2018-06-25T06:27:46.374Z,39.22
2018-06-25T06:30:13.037Z,39.05
2018-06-25T06:32:39.678Z,39.14
2018-06-25T06:35:06.322Z,39.25
2018-06-25T06:37:33.022Z,39.12
2018-06-25T06:39:59.695Z,39.14
2018-06-25T06:42:26.310Z,39.34
2018-06-25T06:44:52.977Z,39.29
2018-06-25T06:47:22.423Z,39.24
2018-06-25T06:49:49.103Z,39.08
2018-06-25T06:52:15.741Z,39.18
2018-06-25T06:54:42.399Z,39.25
2018-06-25T06:57:09.042Z,38.99
2018-06-25T06:59:35.795Z,38.85
2018-06-25T07:02:02.542Z,39.18
2018-06-25T07:04:29.192Z,39.45
2018-06-25T07:06:55.881Z,39.53
2018-06-25T07:09:22.527Z,39.26
2018-06-25T07:11:49.187Z,39.26
2018-06-25T07:14:15.912Z,39.32
2018-06-25T07:16:42.621Z,39.11
2018-06-25T07:19:09.218Z,39.04
2018-06-25T07:21:35.906Z,39.19
2018-06-25T07:24:02.605Z,39.05
2018-06-25T07:26:29.328Z,38.92
2018-06-25T07:28:55.974Z,39.12
2018-06-25T07:31:22.646Z,39.14
2018-06-25T07:33:49.285Z,38.99
2018-06-25T07:36:15.931Z,38.87
2018-06-25T07:38:42.623Z,39.00
2018-06-25T07:41:09.278Z,38.82
2018-06-25T07:43:35.944Z,38.64
2018-06-25T07:46:02.602Z,38.65
2018-06-25T07:48:29.311Z,38.46
2018-06-25T07:50:55.947Z,38.48
2018-06-25T07:53:22.654Z,38.50
2018-06-25T07:55:49.357Z,38.46
2018-06-25T07:58:16.013Z,38.50
2018-06-25T08:00:42.646Z,38.47
2018-06-25T08:03:12.210Z,38.49
2018-06-25T08:05:38.899Z,38.40
2018-06-25T08:08:05.539Z,38.33
2018-06-25T08:10:32.209Z,38.40
2018-06-25T08:12:58.885Z,38.45
2018-06-25T08:15:25.532Z,38.36
2018-06-25T08:17:52.175Z,38.21
2018-06-25T08:20:18.892Z,38.36
2018-06-25T08:22:45.543Z,38.28
2018-06-25T08:25:12.198Z,38.16
2018-06-25T08:27:38.933Z,38.21
2018-06-25T08:30:05.637Z,38.03
2018-06-25T08:32:32.352Z,37.91
2018-06-25T08:34:58.989Z,38.11
2018-06-25T08:37:25.674Z,38.04
2018-06-25T08:39:52.341Z,37.91
2018-06-25T08:42:18.947Z,37.76
2018-06-25T08:44:45.630Z,37.74
2018-06-25T08:47:12.233Z,37.67
2018-06-25T08:49:38.882Z,37.80
2018-06-25T08:52:05.523Z,37.75
2018-06-25T08:54:32.170Z,37.68
2018-06-25T08:57:01.585Z,37.62
2018-06-25T08:59:28.144Z,37.57
2018-06-25T09:01:54.781Z,37.55
2018-06-25T09:04:21.450Z,37.65
2018-06-25T09:06:48.115Z,37.67
2018-06-25T09:09:14.742Z,37.57
2018-06-25T09:11:41.378Z,37.39
2018-06-25T09:14:08.027Z,37.36
2018-06-25T09:16:34.672Z,37.38
2018-06-25T09:19:01.323Z,37.31
2018-06-25T09:21:27.979Z,37.16
2018-06-25T09:23:54.609Z,37.27
2018-06-25T09:26:21.269Z,37.46
2018-06-25T09:28:47.944Z,37.31
2018-06-25T09:31:14.580Z,37.28
2018-06-25T09:33:41.243Z,37.10
2018-06-25T09:36:08.052Z,37.20
2018-06-25T09:38:34.692Z,37.25
2018-06-25T09:41:01.425Z,37.22
2018-06-25T09:43:28.010Z,37.45
2018-06-25T09:45:54.751Z,37.62
2018-06-25T09:48:21.381Z,37.49
2018-06-25T09:50:48.017Z,37.42
2018-06-25T09:53:14.721Z,37.48
2018-06-25T09:55:41.394Z,37.32
2018-06-25T09:58:08.041Z,37.25
2018-06-25T10:00:34.760Z,37.33
2018-06-25T10:03:01.411Z,37.35
2018-06-25T10:05:28.049Z,37.44
2018-06-25T10:07:54.694Z,37.34
2018-06-25T10:10:21.328Z,37.24
2018-06-25T10:12:47.971Z,37.32
2018-06-25T10:15:14.606Z,37.24
2018-06-25T10:17:41.260Z,37.26
2018-06-25T10:20:07.912Z,37.31
2018-06-25T10:22:34.569Z,37.45
2018-06-25T10:25:01.249Z,37.41
2018-06-25T10:27:27.944Z,37.46
2018-06-25T10:29:54.582Z,37.45
2018-06-25T10:32:21.210Z,37.45
2018-06-25T10:34:47.929Z,37.46
2018-06-25T10:37:14.566Z,37.51
2018-06-25T10:39:41.285Z,37.72
2018-06-25T10:42:07.969Z,37.65
2018-06-25T10:44:34.574Z,37.59
2018-06-25T10:47:01.219Z,37.58
2018-06-25T10:49:27.930Z,37.54
2018-06-25T10:51:54.562Z,37.47
2018-06-25T10:54:21.217Z,37.43
2018-06-25T10:56:47.861Z,37.35
2018-06-25T10:59:14.554Z,37.23
2018-06-25T11:01:41.201Z,37.36
2018-06-25T11:04:07.839Z,37.43
2018-06-25T11:06:34.481Z,37.41
2018-06-25T11:09:01.108Z,37.50
2018-06-25T11:11:27.753Z,37.34
2018-06-25T11:13:54.386Z,37.26
2018-06-25T11:16:21.033Z,37.07
2018-06-25T11:18:47.724Z,37.34
2018-06-25T11:21:14.377Z,37.07
2018-06-25T11:23:41.935Z,37.33
2018-06-25T11:26:08.610Z,36.40
2018-06-25T11:28:35.265Z,36.15
2018-06-25T11:31:01.950Z,36.47
2018-06-25T11:33:29.616Z,36.19
2018-06-25T11:35:56.268Z,36.10
2018-06-25T11:38:22.958Z,35.85
2018-06-25T11:40:49.594Z,36.14
2018-06-25T11:43:16.252Z,35.85
2018-06-25T11:45:42.896Z,36.08
2018-06-25T11:48:09.582Z,36.09
2018-06-25T11:50:36.228Z,35.42
2018-06-25T11:53:02.879Z,35.68
2018-06-25T11:55:29.913Z,35.61
2018-06-25T11:57:56.525Z,35.62
2018-06-25T12:00:23.191Z,35.73
2018-06-25T12:02:49.905Z,35.50
2018-06-25T12:05:16.474Z,35.73
2018-06-25T12:07:43.133Z,35.96
2018-06-25T12:10:09.773Z,35.88
2018-06-25T12:12:36.461Z,35.89
2018-06-25T12:15:03.158Z,36.34
2018-06-25T12:17:29.870Z,36.48
2018-06-25T12:19:56.711Z,37.03
2018-06-25T12:22:23.231Z,37.42
2018-06-25T12:24:49.886Z,36.86
2018-06-25T12:27:16.487Z,36.65
2018-06-25T12:29:43.180Z,36.45
2018-06-25T12:32:09.836Z,36.36
2018-06-25T12:34:36.530Z,36.29
2018-06-25T12:37:03.166Z,36.42
2018-06-25T12:39:29.811Z,36.27
2018-06-25T12:41:56.544Z,36.25
2018-06-25T12:44:23.205Z,36.78
2018-06-25T12:46:49.818Z,37.55
2018-06-25T12:49:16.473Z,37.01
2018-06-25T12:51:43.159Z,36.59
2018-06-25T12:54:09.759Z,36.58
2018-06-25T12:56:36.405Z,36.34
2018-06-25T12:59:03.081Z,36.36
2018-06-25T13:01:29.757Z,36.29
2018-06-25T13:03:56.377Z,36.24
2018-06-25T13:06:22.984Z,36.29
2018-06-25T13:08:51.278Z,36.36
2018-06-25T13:11:16.277Z,36.57
2018-06-25T13:13:42.914Z,36.55
2018-06-25T13:16:09.549Z,36.42
2018-06-25T13:18:36.226Z,36.51
2018-06-25T13:21:02.895Z,37.22
2018-06-25T13:23:29.520Z,37.91
2018-06-25T13:25:56.308Z,37.24
2018-06-25T13:28:22.851Z,36.87
2018-06-25T13:30:49.572Z,36.71
2018-06-25T13:33:16.151Z,36.53
2018-06-25T13:35:42.792Z,36.42
2018-06-25T13:38:09.567Z,37.13
2018-06-25T13:40:36.174Z,37.67
2018-06-25T13:43:02.854Z,37.33
2018-06-25T13:45:29.557Z,36.87
2018-06-25T13:47:56.224Z,36.49
2018-06-25T13:50:22.930Z,36.40
2018-06-25T13:52:49.751Z,36.27
2018-06-25T13:55:16.401Z,36.35
2018-06-25T13:57:43.043Z,36.27
2018-06-25T14:00:09.726Z,36.15
2018-06-25T14:02:36.369Z,36.14
2018-06-25T14:05:03.010Z,36.00
2018-06-25T14:07:29.739Z,35.87
2018-06-25T14:09:56.421Z,35.79
2018-06-25T14:12:23.046Z,35.81
2018-06-25T14:14:49.727Z,35.72
2018-06-25T14:17:16.374Z,35.60
2018-06-25T14:19:43.035Z,35.70
2018-06-25T14:22:09.722Z,35.68
2018-06-25T14:24:36.368Z,35.66
2018-06-25T14:27:03.019Z,35.62
2018-06-25T14:29:29.701Z,35.57
2018-06-25T14:31:56.340Z,35.76
2018-06-25T14:34:23.021Z,35.76
2018-06-25T14:36:49.661Z,35.23
2018-06-25T14:39:16.335Z,35.22
2018-06-25T14:41:42.989Z,34.93
2018-06-25T14:44:09.703Z,34.80
2018-06-25T14:46:36.446Z,34.73
2018-06-25T14:49:03.126Z,34.68
2018-06-25T14:51:29.800Z,34.57
2018-06-25T14:53:56.437Z,34.52
2018-06-25T14:56:23.147Z,34.46
2018-06-25T14:58:49.874Z,34.04
2018-06-25T15:01:16.564Z,33.87
2018-06-25T15:03:43.202Z,33.88
2018-06-25T15:06:09.894Z,33.71
2018-06-25T15:08:36.527Z,33.75
2018-06-25T15:11:03.294Z,33.68
2018-06-25T15:13:29.946Z,33.64
2018-06-25T15:15:56.583Z,33.58
2018-06-25T15:18:23.221Z,33.62
2018-06-25T15:20:49.872Z,33.74
2018-06-25T15:23:16.505Z,33.51
2018-06-25T15:25:46.133Z,33.47
2018-06-25T15:28:12.848Z,33.61
2018-06-25T15:30:39.501Z,33.78
2018-06-25T15:33:06.194Z,33.66
2018-06-25T15:35:32.895Z,33.89
2018-06-25T15:37:59.601Z,33.86
2018-06-25T15:40:26.358Z,33.87
2018-06-25T15:42:53.078Z,33.80
2018-06-25T15:45:19.816Z,34.03
2018-06-25T15:47:46.463Z,34.09
2018-06-25T15:50:13.141Z,34.15
2018-06-25T15:52:39.824Z,34.18
2018-06-25T15:55:06.468Z,34.11
2018-06-25T15:57:33.107Z,34.23
2018-06-25T15:59:59.804Z,34.25
2018-06-25T16:02:26.404Z,34.36
2018-06-25T16:04:53.082Z,34.25
2018-06-25T16:07:19.726Z,34.51
2018-06-25T16:09:46.417Z,34.75
2018-06-25T16:12:13.105Z,34.73
2018-06-25T16:14:39.752Z,34.83
2018-06-25T16:17:09.285Z,34.74
2018-06-25T16:19:35.965Z,34.73
2018-06-25T16:22:02.609Z,34.75
2018-06-25T16:24:29.327Z,34.76
2018-06-25T16:26:56.000Z,34.86
2018-06-25T16:29:22.682Z,34.84
2018-06-25T16:31:49.324Z,34.87
2018-06-25T16:34:16.015Z,35.09
2018-06-25T16:36:42.653Z,35.15
2018-06-25T16:39:09.291Z,35.23
2018-06-25T16:41:35.981Z,35.30
2018-06-25T16:44:02.666Z,35.41
2018-06-25T16:46:29.345Z,35.32
2018-06-25T16:48:55.950Z,35.27
2018-06-25T16:51:22.646Z,35.43
2018-06-25T16:53:49.283Z,35.27
2018-06-25T16:56:15.990Z,35.41
2018-06-25T16:58:42.666Z,35.55
2018-06-25T17:01:09.299Z,35.56
2018-06-25T17:03:35.978Z,35.53
2018-06-25T17:06:02.652Z,35.55
2018-06-25T17:08:29.255Z,35.55
2018-06-25T17:10:55.904Z,35.68
2018-06-25T17:13:22.542Z,35.68
2018-06-25T17:15:49.196Z,35.74
2018-06-25T17:18:15.830Z,35.79
2018-06-25T17:20:42.468Z,35.97
2018-06-25T17:23:09.195Z,36.32
2018-06-25T17:25:35.832Z,36.02
2018-06-25T17:28:02.492Z,36.13
2018-06-25T17:30:29.129Z,36.14
2018-06-25T17:32:55.764Z,36.20
2018-06-25T17:35:22.407Z,36.27
2018-06-25T17:37:49.038Z,36.33
2018-06-25T17:40:15.673Z,36.41
2018-06-25T17:42:42.365Z,36.35
2018-06-25T17:45:09.037Z,36.41
2018-06-25T17:47:35.639Z,36.42
2018-06-25T17:50:02.290Z,36.45
2018-06-25T17:52:28.930Z,36.47
2018-06-25T17:54:55.577Z,36.53
2018-06-25T17:57:22.222Z,36.57
2018-06-25T17:59:48.871Z,36.54
2018-06-25T18:02:15.547Z,36.66
2018-06-25T18:04:42.156Z,36.64
2018-06-25T18:07:08.790Z,36.68
2018-06-25T18:09:35.432Z,36.75
2018-06-25T18:12:02.145Z,36.75
2018-06-25T18:14:28.787Z,36.72
2018-06-25T18:16:55.431Z,36.82
2018-06-25T18:19:22.077Z,36.78
2018-06-25T18:21:48.714Z,36.84
2018-06-25T18:24:15.350Z,36.92
2018-06-25T18:26:42.001Z,36.92
2018-06-25T18:29:08.638Z,36.85
2018-06-25T18:31:35.316Z,36.87
2018-06-25T18:34:01.916Z,36.94
2018-06-25T18:36:28.561Z,36.96
2018-06-25T18:38:55.214Z,37.11
2018-06-25T18:41:21.850Z,37.07
2018-06-25T18:43:48.489Z,37.12
2018-06-25T18:46:15.133Z,37.14
2018-06-25T18:48:41.769Z,37.11
2018-06-25T18:51:08.415Z,37.26
2018-06-25T18:53:36.368Z,37.21
2018-06-25T18:56:01.683Z,37.26
2018-06-25T18:58:28.313Z,37.25
2018-06-25T19:00:55.029Z,37.22
2018-06-25T19:03:21.669Z,37.36
2018-06-25T19:05:48.316Z,37.28
2018-06-25T19:08:14.958Z,37.38
2018-06-25T19:10:41.605Z,37.42
2018-06-25T19:13:08.240Z,37.47
2018-06-25T19:15:34.873Z,37.55
2018-06-25T19:18:01.530Z,37.55
2018-06-25T19:20:28.161Z,37.56
2018-06-25T19:22:54.837Z,37.66
2018-06-25T19:25:21.444Z,37.72
2018-06-25T19:27:48.085Z,37.66
2018-06-25T19:30:14.723Z,37.68
2018-06-25T19:32:41.368Z,37.79
2018-06-25T19:35:08.004Z,37.81
2018-06-25T19:37:34.684Z,37.86
2018-06-25T19:40:01.337Z,37.85
2018-06-25T19:42:27.977Z,37.84
2018-06-25T19:44:54.618Z,37.85
2018-06-25T19:47:21.263Z,37.91
2018-06-25T19:49:47.926Z,37.91
2018-06-25T19:52:14.571Z,37.93
2018-06-25T19:54:41.211Z,37.91
2018-06-25T19:57:07.856Z,38.06
2018-06-25T19:59:34.531Z,38.01
2018-06-25T20:02:01.152Z,37.98
2018-06-25T20:04:27.793Z,38.00
2018-06-25T20:06:54.430Z,38.06
2018-06-25T20:09:21.068Z,38.09
2018-06-25T20:11:47.706Z,38.06
2018-06-25T20:14:14.378Z,38.13
2018-06-25T20:16:41.007Z,38.16
2018-06-25T20:19:07.640Z,38.17
2018-06-25T20:21:34.281Z,38.14
2018-06-25T20:24:00.926Z,38.16
2018-06-25T20:26:27.565Z,38.22
2018-06-25T20:28:54.214Z,38.08
2018-06-25T20:31:20.864Z,38.28
2018-06-25T20:33:47.489Z,38.28
2018-06-25T20:36:14.213Z,38.29
2018-06-25T20:38:40.795Z,38.23
2018-06-25T20:41:07.448Z,38.26
2018-06-25T20:43:34.070Z,38.23
2018-06-25T20:46:00.759Z,38.31
2018-06-25T20:48:27.367Z,38.34
2018-06-25T20:50:54.004Z,38.36
2018-06-25T20:53:20.714Z,38.40
2018-06-25T20:55:47.419Z,38.38
2018-06-25T20:58:14.029Z,38.45
2018-06-25T21:00:40.671Z,38.49
2018-06-25T21:03:07.313Z,38.47
2018-06-25T21:05:33.962Z,38.51
2018-06-25T21:08:00.600Z,38.44
2018-06-25T21:10:27.264Z,38.53
2018-06-25T21:12:53.863Z,38.43
2018-06-25T21:15:20.514Z,38.46
2018-06-25T21:17:47.147Z,38.53
2018-06-25T21:20:13.801Z,38.57
2018-06-25T21:22:40.434Z,38.62
2018-06-25T21:25:07.072Z,38.54
2018-06-25T21:27:33.709Z,38.55
2018-06-25T21:30:00.390Z,38.62
2018-06-25T21:32:27.044Z,38.64
2018-06-25T21:34:53.683Z,38.59
2018-06-25T21:37:20.325Z,38.53
2018-06-25T21:39:46.957Z,38.60
2018-06-25T21:42:13.598Z,38.64
2018-06-25T21:44:40.237Z,38.61
2018-06-25T21:47:06.887Z,38.57
2018-06-25T21:49:33.557Z,38.60
2018-06-25T21:52:00.175Z,38.67
2018-06-25T21:54:26.815Z,38.64
2018-06-25T21:56:53.475Z,38.64
2018-06-25T21:59:20.122Z,38.68
2018-06-25T22:01:46.797Z,38.61
2018-06-25T22:04:13.411Z,38.61
2018-06-25T22:06:40.044Z,38.62
2018-06-25T22:09:06.716Z,38.59
2018-06-25T22:11:33.332Z,38.65
2018-06-25T22:13:59.962Z,38.68
2018-06-25T22:16:26.662Z,38.66
2018-06-25T22:18:53.261Z,38.64
2018-06-25T22:21:19.909Z,38.75
2018-06-25T22:23:46.539Z,38.67
2018-06-25T22:26:13.195Z,38.66
2018-06-25T22:28:39.829Z,38.72
2018-06-25T22:31:06.516Z,38.64
2018-06-25T22:33:33.152Z,38.62
2018-06-25T22:35:59.789Z,38.78
2018-06-25T22:38:26.431Z,38.72
2018-06-25T22:40:53.070Z,38.68
2018-06-25T22:43:19.726Z,38.73
2018-06-25T22:45:46.402Z,38.73
2018-06-25T22:48:13.042Z,38.83
2018-06-25T22:50:39.685Z,38.78
2018-06-25T22:53:06.363Z,38.83
2018-06-25T22:55:33.036Z,38.81
2018-06-25T22:57:59.644Z,38.78
2018-06-25T23:00:26.367Z,38.79
2018-06-25T23:02:52.962Z,38.82
2018-06-25T23:05:19.698Z,38.94
2018-06-25T23:07:46.350Z,38.86
2018-06-25T23:10:12.985Z,38.85
2018-06-25T23:12:39.793Z,38.76
2018-06-25T23:15:06.442Z,38.86
2018-06-25T23:17:33.081Z,38.79
2018-06-25T23:19:59.720Z,38.82
2018-06-25T23:22:26.415Z,38.80
2018-06-25T23:24:53.066Z,38.77
2018-06-25T23:27:19.766Z,38.81
2018-06-25T23:29:46.424Z,38.75
2018-06-25T23:32:13.059Z,38.67
2018-06-25T23:34:39.744Z,38.69
2018-06-25T23:37:06.378Z,38.69
2018-06-25T23:39:33.012Z,38.67
2018-06-25T23:41:59.658Z,38.65
2018-06-25T23:44:26.420Z,38.57
2018-06-25T23:46:53.032Z,38.72
2018-06-25T23:49:19.673Z,38.67
2018-06-25T23:51:46.339Z,38.69
2018-06-25T23:54:12.948Z,38.65
2018-06-25T23:56:39.597Z,38.66
2018-06-25T23:59:06.245Z,38.59
